createdAt,value
2022-08-10T10:10:25.671Z,28.50
2022-08-10T10:12:59.769Z,29.50
2022-08-10T10:15:35.978Z,29.10
2022-08-10T10:18:35.705Z,28.80
2022-08-10T10:21:09.263Z,28.60
2022-08-10T10:24:21.021Z,28.60
2022-08-10T10:26:45.971Z,28.40
2022-08-10T10:32:16.222Z,28.20
2022-08-10T10:34:49.543Z,28.30
2022-08-10T10:37:19.289Z,28.50
2022-08-10T10:42:49.435Z,28.50
2022-08-10T11:51:18.437Z,28.50
2022-08-10T11:56:18.621Z,28.50
2022-08-10T11:59:16.376Z,28.50
2022-08-10T12:01:47.886Z,28.60
2022-08-10T12:06:56.189Z,28.60
2022-08-10T12:12:14.501Z,28.70
2022-08-10T12:14:47.663Z,28.80
2022-08-10T12:17:17.294Z,28.80
2022-08-10T12:22:32.714Z,28.90
2022-08-10T12:25:03.986Z,28.90
2022-08-10T12:27:36.224Z,29.00
2022-08-10T12:30:06.134Z,28.70
2022-08-10T12:32:41.761Z,28.70
2022-08-10T12:35:21.880Z,28.80
2022-08-10T12:40:36.022Z,28.90
2022-08-10T12:44:03.579Z,28.60
2022-08-10T12:46:06.460Z,28.80
2022-08-10T12:48:37.627Z,28.90
2022-08-10T12:51:09.444Z,28.70
2022-08-10T12:53:45.368Z,28.70
2022-08-10T12:56:20.646Z,28.80
2022-08-10T12:58:57.028Z,28.90
2022-08-10T13:02:09.702Z,29.00
2022-08-10T13:04:22.441Z,28.80
2022-08-10T13:06:52.810Z,28.80
2022-08-10T13:24:55.869Z,28.60
2022-08-10T14:05:23.873Z,28.50
2022-08-10T14:25:48.847Z,28.70
2022-08-10T14:28:19.676Z,28.60
2022-08-10T14:30:55.577Z,28.50
2022-08-10T14:33:24.739Z,28.60
2022-08-10T14:36:22.473Z,28.50
2022-08-10T14:38:44.855Z,28.50
2022-08-10T14:42:01.085Z,28.50
2022-08-10T14:44:07.283Z,28.40
2022-08-10T14:46:38.103Z,28.40
2022-08-10T14:49:26.224Z,28.40
2022-08-10T14:52:00.526Z,28.30
2022-08-10T14:54:30.122Z,28.40
2022-08-10T14:57:10.840Z,28.60
2022-08-10T15:00:22.995Z,28.50
2022-08-10T15:02:40.902Z,28.40
2022-08-10T15:05:19.499Z,28.50
2022-08-10T15:07:59.398Z,28.60
2022-08-10T15:10:28.789Z,28.70
2022-08-10T15:12:59.061Z,28.80
2022-08-10T15:15:31.361Z,28.80
2022-08-10T15:18:18.790Z,28.80
2022-08-10T15:20:57.238Z,28.60
2022-08-10T15:23:30.975Z,28.90
2022-08-10T15:26:10.703Z,28.60
2022-08-10T15:29:24.427Z,28.50
2022-08-10T15:31:34.117Z,28.30
2022-08-10T15:34:21.263Z,28.30
2022-08-10T15:37:40.506Z,28.20
2022-08-10T15:40:21.389Z,28.20
2022-08-10T15:42:58.332Z,28.30
2022-08-10T15:45:28.754Z,28.20
2022-08-10T15:48:03.140Z,28.10
2022-08-10T15:50:33.960Z,28.10
2022-08-10T15:53:03.663Z,28.30
2022-08-10T15:55:42.550Z,28.20
2022-08-10T15:58:16.537Z,28.20
2022-08-10T16:00:49.031Z,28.30
2022-08-10T16:03:23.442Z,28.40
2022-08-10T16:06:02.073Z,28.50
2022-08-10T16:08:56.714Z,28.50
2022-08-10T16:11:38.194Z,28.60
2022-08-10T16:14:13.182Z,28.50
2022-08-10T16:16:45.176Z,28.40
2022-08-10T16:19:24.522Z,28.30
2022-08-10T16:22:02.357Z,28.30
2022-08-10T16:24:35.362Z,28.20
2022-08-10T16:27:07.484Z,28.30
2022-08-10T16:29:55.967Z,28.20
2022-08-10T16:32:28.323Z,28.30
2022-08-10T16:34:57.634Z,28.30
2022-08-10T16:37:57.656Z,28.30
2022-08-10T16:40:20.727Z,28.10
2022-08-10T16:42:50.437Z,28.00
2022-08-10T16:45:20.862Z,27.90
2022-08-10T16:47:52.880Z,27.90
2022-08-10T16:50:23.875Z,27.90
2022-08-10T16:52:54.169Z,27.90
2022-08-10T16:55:49.691Z,27.80
2022-08-10T16:58:14.253Z,27.70
2022-08-10T17:00:43.212Z,27.70
2022-08-10T17:03:22.862Z,27.60
2022-08-10T17:06:10.713Z,27.70
2022-08-10T17:08:48.509Z,27.60
2022-08-10T17:11:18.337Z,27.70
2022-08-10T17:13:47.099Z,27.70
2022-08-10T17:16:17.064Z,27.60
2022-08-10T17:18:48.148Z,27.70
2022-08-10T17:21:19.220Z,27.70
2022-08-10T17:23:49.489Z,27.70
2022-08-10T17:26:24.757Z,27.70
2022-08-10T17:29:08.429Z,27.50
2022-08-10T17:31:54.936Z,27.50
2022-08-10T17:34:29.209Z,27.60
2022-08-10T17:36:59.191Z,27.50
2022-08-10T17:39:31.436Z,27.50
2022-08-10T17:42:02.067Z,27.50
2022-08-10T17:44:30.835Z,27.60
2022-08-10T17:47:00.937Z,27.60
2022-08-10T17:49:41.588Z,27.60
2022-08-10T17:52:11.575Z,27.60
2022-08-10T17:54:41.867Z,27.60
2022-08-10T17:57:12.185Z,27.50
2022-08-10T17:59:42.079Z,27.50
2022-08-10T18:02:12.552Z,27.60
2022-08-10T18:04:47.153Z,27.50
2022-08-10T18:07:16.207Z,27.50
2022-08-10T18:09:46.643Z,27.50
2022-08-10T18:12:18.466Z,27.40
2022-08-10T18:14:49.485Z,27.40
2022-08-10T18:17:20.138Z,27.40
2022-08-10T18:19:52.892Z,27.40
2022-08-10T18:22:21.827Z,27.60
2022-08-10T18:24:51.402Z,27.50
2022-08-10T18:27:21.128Z,27.60
2022-08-10T18:29:50.808Z,27.70
2022-08-10T18:32:20.794Z,27.70
2022-08-10T18:34:50.913Z,27.70
2022-08-10T18:37:20.576Z,27.70
2022-08-10T18:39:50.272Z,27.80
2022-08-10T18:42:20.812Z,27.80
2022-08-10T18:44:50.827Z,28.00
2022-08-10T18:47:22.286Z,27.90
2022-08-10T18:49:59.185Z,27.90
2022-08-10T18:52:29.347Z,27.80
2022-08-10T18:55:03.705Z,27.70
2022-08-10T18:58:05.659Z,27.50
2022-08-10T19:00:37.645Z,27.60
2022-08-10T19:03:26.861Z,27.40
2022-08-10T19:06:11.223Z,27.40
2022-08-10T19:08:48.842Z,27.50
2022-08-10T19:11:24.768Z,27.40
2022-08-10T19:14:00.325Z,27.20
2022-08-10T19:16:39.942Z,27.30
2022-08-10T19:19:26.713Z,27.20
2022-08-10T19:22:04.317Z,27.20
2022-08-10T19:24:45.874Z,27.20
2022-08-10T19:27:30.918Z,27.30
2022-08-10T19:30:10.936Z,27.40
2022-08-10T19:33:00.965Z,27.60
2022-08-10T19:36:03.359Z,27.70
2022-08-10T19:38:49.333Z,27.80
2022-08-10T19:41:32.458Z,27.90
2022-08-10T19:44:16.350Z,28.00
2022-08-10T19:46:45.839Z,28.10
2022-08-10T19:49:18.610Z,28.00
2022-08-10T19:51:52.880Z,28.10
2022-08-10T19:54:26.757Z,28.10
2022-08-10T19:56:59.202Z,28.10
2022-08-10T20:00:06.303Z,28.10
2022-08-10T20:02:22.635Z,28.00
2022-08-10T20:04:57.286Z,28.00
2022-08-10T20:07:30.632Z,28.00
2022-08-10T20:10:02.922Z,28.10
2022-08-10T20:12:35.289Z,28.00
2022-08-10T20:15:06.937Z,28.00
2022-08-10T20:17:51.121Z,28.00
2022-08-10T20:20:30.975Z,27.80
2022-08-10T20:23:03.446Z,27.80
2022-08-10T20:25:33.469Z,27.80
2022-08-10T20:28:06.346Z,27.90
2022-08-10T20:30:36.610Z,28.00
2022-08-10T20:33:09.501Z,28.00
2022-08-10T20:35:47.512Z,28.10
2022-08-10T20:38:20.825Z,28.20
2022-08-10T20:40:57.129Z,28.30
2022-08-10T20:43:30.437Z,28.40
2022-08-10T20:46:09.576Z,28.50
2022-08-10T20:48:41.713Z,28.50
2022-08-10T20:51:14.506Z,28.50
2022-08-10T20:53:45.666Z,28.50
2022-08-10T20:56:18.288Z,28.60
2022-08-10T20:58:55.836Z,28.50
2022-08-10T21:02:06.598Z,28.50
2022-08-10T21:04:21.306Z,28.50
2022-08-10T21:07:00.785Z,28.50
2022-08-10T21:09:35.034Z,28.50
2022-08-10T21:12:16.406Z,28.60
2022-08-10T21:14:49.404Z,28.60
2022-08-10T21:17:24.694Z,28.60
2022-08-10T21:20:16.843Z,28.50
2022-08-10T21:22:46.720Z,28.50
2022-08-10T21:25:18.774Z,28.50
2022-08-10T21:27:55.649Z,28.60
2022-08-10T21:30:28.929Z,28.50
2022-08-10T21:32:59.328Z,28.40
2022-08-10T21:35:37.182Z,28.40
2022-08-10T21:38:09.373Z,28.40
2022-08-10T21:40:40.686Z,28.40
2022-08-10T21:43:44.426Z,28.50
2022-08-10T21:46:37.481Z,28.50
2022-08-10T21:49:25.946Z,28.50
2022-08-10T21:52:27.376Z,28.50
2022-08-10T21:55:16.580Z,28.40
2022-08-10T21:58:06.153Z,28.50
2022-08-10T22:00:56.167Z,28.50
2022-08-10T22:03:42.138Z,28.50
2022-08-10T22:06:28.756Z,28.50
2022-08-10T22:09:19.912Z,28.50
2022-08-10T22:12:09.507Z,28.50
2022-08-10T22:15:11.262Z,28.50
2022-08-10T22:18:10.827Z,28.40
2022-08-10T22:20:58.982Z,28.50
2022-08-10T22:24:16.501Z,28.50
2022-08-10T22:27:06.860Z,28.50
2022-08-10T22:29:55.174Z,28.50
2022-08-10T22:32:46.514Z,28.50
2022-08-10T22:35:47.198Z,28.50
2022-08-10T22:38:38.718Z,28.50
2022-08-10T22:41:27.769Z,28.50
2022-08-10T22:44:16.875Z,28.50
2022-08-10T22:47:02.869Z,28.40
2022-08-10T22:49:30.197Z,28.40
2022-08-10T22:52:03.710Z,28.50
2022-08-10T22:54:51.193Z,28.40
2022-08-10T22:57:37.645Z,28.40
2022-08-10T23:00:14.482Z,28.50
2022-08-10T23:02:44.920Z,28.50
2022-08-10T23:05:15.707Z,28.40
2022-08-10T23:07:48.697Z,28.50
2022-08-10T23:10:19.327Z,28.40
2022-08-10T23:12:49.307Z,28.40
2022-08-10T23:15:40.320Z,28.40
2022-08-10T23:18:28.802Z,28.50
2022-08-10T23:20:58.418Z,28.40
2022-08-10T23:23:30.231Z,28.30
2022-08-10T23:25:59.880Z,28.30
2022-08-10T23:28:58.285Z,28.40
2022-08-10T23:31:57.638Z,28.50
2022-08-10T23:34:07.625Z,28.40
2022-08-10T23:36:38.118Z,28.40
2022-08-10T23:39:23.977Z,28.40
2022-08-10T23:42:01.772Z,28.50
2022-08-10T23:44:45.554Z,28.50
2022-08-10T23:47:15.917Z,28.50
2022-08-10T23:49:45.458Z,28.40
2022-08-10T23:52:15.756Z,28.40
2022-08-10T23:54:46.393Z,28.40
2022-08-10T23:57:16.615Z,28.40
2022-08-10T23:59:50.948Z,28.40
